sensor_id;sensor_type;location;lat;lon;timestamp;pressure;altitude;pressure_sealevel;temperature;humidity
58072;BME280;60383;46.626;18.866;2023-04-25T00:00:31;99464.69;;;11.62;96.94
58072;BME280;60383;46.626;18.866;2023-04-25T00:02:57;99471.31;;;11.68;97.08
58072;BME280;60383;46.626;18.866;2023-04-25T00:05:24;99464.13;;;11.67;95.79
58072;BME280;60383;46.626;18.866;2023-04-25T00:07:50;99466.19;;;11.65;95.69
58072;BME280;60383;46.626;18.866;2023-04-25T00:10:15;99464.69;;;11.77;93.90
58072;BME280;60383;46.626;18.866;2023-04-25T00:12:41;99455.13;;;11.88;93.84
58072;BME280;60383;46.626;18.866;2023-04-25T00:15:07;99458.38;;;11.62;95.00
58072;BME280;60383;46.626;18.866;2023-04-25T00:17:33;99461.03;;;11.70;93.98
58072;BME280;60383;46.626;18.866;2023-04-25T00:20:00;99447.13;;;11.72;93.53
58072;BME280;60383;46.626;18.866;2023-04-25T00:22:26;99453.63;;;11.56;94.80
58072;BME280;60383;46.626;18.866;2023-04-25T00:24:51;99458.16;;;11.63;95.55
58072;BME280;60383;46.626;18.866;2023-04-25T00:27:18;99452.00;;;11.46;94.71
58072;BME280;60383;46.626;18.866;2023-04-25T00:29:44;99451.66;;;11.64;93.51
58072;BME280;60383;46.626;18.866;2023-04-25T00:32:09;99451.38;;;11.59;93.92
58072;BME280;60383;46.626;18.866;2023-04-25T00:34:35;99451.19;;;11.61;93.80
58072;BME280;60383;46.626;18.866;2023-04-25T00:37:01;99457.97;;;11.35;94.57
58072;BME280;60383;46.626;18.866;2023-04-25T00:39:27;99450.03;;;11.40;95.68
58072;BME280;60383;46.626;18.866;2023-04-25T00:41:54;99454.34;;;11.34;95.52
58072;BME280;60383;46.626;18.866;2023-04-25T00:44:20;99456.38;;;11.56;94.50
58072;BME280;60383;46.626;18.866;2023-04-25T00:46:47;99453.44;;;11.57;94.34
58072;BME280;60383;46.626;18.866;2023-04-25T00:49:12;99450.09;;;11.47;94.23
58072;BME280;60383;46.626;18.866;2023-04-25T00:51:41;99454.94;;;11.45;94.71
58072;BME280;60383;46.626;18.866;2023-04-25T00:54:07;99451.53;;;11.58;93.79
58072;BME280;60383;46.626;18.866;2023-04-25T00:56:32;99447.00;;;11.50;93.87
58072;BME280;60383;46.626;18.866;2023-04-25T00:58:58;99453.25;;;11.44;94.41
58072;BME280;60383;46.626;18.866;2023-04-25T01:01:23;99449.00;;;11.56;94.64
58072;BME280;60383;46.626;18.866;2023-04-25T01:03:49;99441.88;;;11.47;93.82
58072;BME280;60383;46.626;18.866;2023-04-25T01:06:16;99453.25;;;11.59;94.48
58072;BME280;60383;46.626;18.866;2023-04-25T01:08:42;99448.22;;;11.47;94.69
58072;BME280;60383;46.626;18.866;2023-04-25T01:11:07;99448.03;;;11.49;95.39
58072;BME280;60383;46.626;18.866;2023-04-25T01:13:34;99448.03;;;11.49;94.60
58072;BME280;60383;46.626;18.866;2023-04-25T01:16:00;99453.50;;;11.34;95.37
58072;BME280;60383;46.626;18.866;2023-04-25T01:18:26;99448.16;;;11.56;94.97
58072;BME280;60383;46.626;18.866;2023-04-25T01:20:52;99438.78;;;11.35;95.59
58072;BME280;60383;46.626;18.866;2023-04-25T01:23:18;99445.69;;;11.46;95.56
58072;BME280;60383;46.626;18.866;2023-04-25T01:25:45;99434.72;;;11.46;95.33
58072;BME280;60383;46.626;18.866;2023-04-25T01:28:10;99439.81;;;11.34;95.29
58072;BME280;60383;46.626;18.866;2023-04-25T01:30:37;99447.94;;;11.42;95.71
58072;BME280;60383;46.626;18.866;2023-04-25T01:33:03;99438.78;;;11.35;95.49
58072;BME280;60383;46.626;18.866;2023-04-25T01:35:30;99441.50;;;11.35;95.92
58072;BME280;60383;46.626;18.866;2023-04-25T01:37:57;99441.06;;;11.08;95.72
58072;BME280;60383;46.626;18.866;2023-04-25T01:40:24;99440.75;;;11.03;97.10
58072;BME280;60383;46.626;18.866;2023-04-25T01:42:50;99439.09;;;11.17;96.36
58072;BME280;60383;46.626;18.866;2023-04-25T01:45:17;99435.00;;;11.13;95.59
58072;BME280;60383;46.626;18.866;2023-04-25T01:47:43;99437.59;;;11.14;95.41
58072;BME280;60383;46.626;18.866;2023-04-25T01:50:12;99437.66;;;11.06;96.39
58072;BME280;60383;46.626;18.866;2023-04-25T01:52:37;99436.72;;;11.14;94.94
58072;BME280;60383;46.626;18.866;2023-04-25T01:55:03;99437.13;;;11.11;94.12
58072;BME280;60383;46.626;18.866;2023-04-25T01:57:29;99434.25;;;11.04;95.25
58072;BME280;60383;46.626;18.866;2023-04-25T01:59:58;99437.63;;;10.91;94.60
58072;BME280;60383;46.626;18.866;2023-04-25T02:02:24;99440.53;;;10.90;94.44
58072;BME280;60383;46.626;18.866;2023-04-25T02:04:51;99431.09;;;10.69;96.16
58072;BME280;60383;46.626;18.866;2023-04-25T02:07:16;99434.81;;;10.76;95.41
58072;BME280;60383;46.626;18.866;2023-04-25T02:09:42;99429.38;;;10.68;95.15
58072;BME280;60383;46.626;18.866;2023-04-25T02:12:09;99425.13;;;10.89;93.83
58072;BME280;60383;46.626;18.866;2023-04-25T02:14:35;99423.34;;;10.96;92.52
58072;BME280;60383;46.626;18.866;2023-04-25T02:17:01;99421.00;;;10.93;92.43
58072;BME280;60383;46.626;18.866;2023-04-25T02:19:26;99432.69;;;10.86;93.13
58072;BME280;60383;46.626;18.866;2023-04-25T02:21:52;99420.72;;;10.88;92.05
58072;BME280;60383;46.626;18.866;2023-04-25T02:24:17;99431.00;;;10.85;93.46
58072;BME280;60383;46.626;18.866;2023-04-25T02:26:43;99425.22;;;10.80;92.34
58072;BME280;60383;46.626;18.866;2023-04-25T02:29:10;99423.84;;;10.76;93.41
58072;BME280;60383;46.626;18.866;2023-04-25T02:31:35;99424.16;;;10.81;92.46
58072;BME280;60383;46.626;18.866;2023-04-25T02:34:01;99420.09;;;10.77;91.97
58072;BME280;60383;46.626;18.866;2023-04-25T02:36:26;99418.94;;;10.71;92.62
58072;BME280;60383;46.626;18.866;2023-04-25T02:38:52;99412.34;;;10.81;91.87
58072;BME280;60383;46.626;18.866;2023-04-25T02:41:18;99417.34;;;10.77;91.56
58072;BME280;60383;46.626;18.866;2023-04-25T02:43:43;99417.41;;;10.69;93.32
58072;BME280;60383;46.626;18.866;2023-04-25T02:46:09;99419.75;;;10.80;90.20
58072;BME280;60383;46.626;18.866;2023-04-25T02:48:34;99416.69;;;10.75;90.86
58072;BME280;60383;46.626;18.866;2023-04-25T02:51:00;99414.31;;;10.72;91.86
58072;BME280;60383;46.626;18.866;2023-04-25T02:53:25;99411.59;;;10.49;91.96
58072;BME280;60383;46.626;18.866;2023-04-25T02:55:51;99415.16;;;10.49;92.93
58072;BME280;60383;46.626;18.866;2023-04-25T02:58:17;99421.25;;;10.60;93.22
58072;BME280;60383;46.626;18.866;2023-04-25T03:00:43;99420.69;;;10.64;91.94
58072;BME280;60383;46.626;18.866;2023-04-25T03:03:08;99412.13;;;10.67;91.30
58072;BME280;60383;46.626;18.866;2023-04-25T03:05:34;99413.84;;;10.68;91.77
58072;BME280;60383;46.626;18.866;2023-04-25T03:08:00;99413.06;;;10.60;91.28
58072;BME280;60383;46.626;18.866;2023-04-25T03:10:26;99413.84;;;10.68;91.03
58072;BME280;60383;46.626;18.866;2023-04-25T03:12:51;99412.56;;;10.56;91.44
58072;BME280;60383;46.626;18.866;2023-04-25T03:15:17;99409.25;;;10.61;91.52
58072;BME280;60383;46.626;18.866;2023-04-25T03:17:42;99413.59;;;10.55;91.75
58072;BME280;60383;46.626;18.866;2023-04-25T03:20:08;99416.72;;;10.44;92.01
58072;BME280;60383;46.626;18.866;2023-04-25T03:22:34;99416.13;;;10.57;92.17
58072;BME280;60383;46.626;18.866;2023-04-25T03:24:59;99412.00;;;10.61;90.83
58072;BME280;60383;46.626;18.866;2023-04-25T03:27:25;99412.19;;;10.59;90.68
58072;BME280;60383;46.626;18.866;2023-04-25T03:29:51;99420.59;;;10.58;89.68
58072;BME280;60383;46.626;18.866;2023-04-25T03:32:16;99411.28;;;10.67;88.64
58072;BME280;60383;46.626;18.866;2023-04-25T03:34:41;99426.34;;;10.63;89.43
58072;BME280;60383;46.626;18.866;2023-04-25T03:37:07;99418.38;;;10.53;89.44
58072;BME280;60383;46.626;18.866;2023-04-25T03:39:32;99428.81;;;10.58;89.77
58072;BME280;60383;46.626;18.866;2023-04-25T03:41:58;99418.19;;;10.54;90.22
58072;BME280;60383;46.626;18.866;2023-04-25T03:44:23;99426.97;;;10.50;90.26
58072;BME280;60383;46.626;18.866;2023-04-25T03:46:49;99425.88;;;10.59;89.03
58072;BME280;60383;46.626;18.866;2023-04-25T03:49:16;99428.56;;;10.67;87.32
58072;BME280;60383;46.626;18.866;2023-04-25T03:51:41;99435.69;;;10.53;88.32
58072;BME280;60383;46.626;18.866;2023-04-25T03:54:06;99434.88;;;10.68;87.63
58072;BME280;60383;46.626;18.866;2023-04-25T03:56:32;99437.50;;;10.61;87.54
58072;BME280;60383;46.626;18.866;2023-04-25T03:58:58;99443.09;;;10.68;87.94
58072;BME280;60383;46.626;18.866;2023-04-25T04:01:23;99442.44;;;10.43;87.28
58072;BME280;60383;46.626;18.866;2023-04-25T04:03:49;99438.78;;;10.50;87.98
58072;BME280;60383;46.626;18.866;2023-04-25T04:06:14;99439.00;;;10.41;89.10
58072;BME280;60383;46.626;18.866;2023-04-25T04:08:40;99446.19;;;10.42;88.19
58072;BME280;60383;46.626;18.866;2023-04-25T04:11:05;99444.94;;;10.52;87.02
58072;BME280;60383;46.626;18.866;2023-04-25T04:13:31;99443.31;;;10.58;86.89
58072;BME280;60383;46.626;18.866;2023-04-25T04:15:57;99450.94;;;10.48;86.87
58072;BME280;60383;46.626;18.866;2023-04-25T04:18:23;99449.13;;;10.32;87.61
58072;BME280;60383;46.626;18.866;2023-04-25T04:20:48;99452.47;;;10.50;87.52
58072;BME280;60383;46.626;18.866;2023-04-25T04:23:14;99454.59;;;10.63;86.74
58072;BME280;60383;46.626;18.866;2023-04-25T04:25:40;99450.75;;;10.73;86.39
58072;BME280;60383;46.626;18.866;2023-04-25T04:28:06;99458.72;;;10.82;84.57
58072;BME280;60383;46.626;18.866;2023-04-25T04:30:32;99460.94;;;10.64;86.54
58072;BME280;60383;46.626;18.866;2023-04-25T04:33:01;99461.56;;;10.74;86.27
58072;BME280;60383;46.626;18.866;2023-04-25T04:35:27;99464.34;;;10.66;86.96
58072;BME280;60383;46.626;18.866;2023-04-25T04:37:53;99475.09;;;10.67;86.36
58072;BME280;60383;46.626;18.866;2023-04-25T04:40:19;99473.53;;;10.73;85.43
58072;BME280;60383;46.626;18.866;2023-04-25T04:42:45;99472.06;;;10.85;85.24
58072;BME280;60383;46.626;18.866;2023-04-25T04:45:11;99472.97;;;10.78;85.50
58072;BME280;60383;46.626;18.866;2023-04-25T04:47:38;99475.41;;;10.73;87.11
58072;BME280;60383;46.626;18.866;2023-04-25T04:50:08;99471.69;;;10.65;86.43
58072;BME280;60383;46.626;18.866;2023-04-25T04:52:39;99465.47;;;10.71;85.66
58072;BME280;60383;46.626;18.866;2023-04-25T04:55:05;99465.06;;;10.83;85.58
58072;BME280;60383;46.626;18.866;2023-04-25T04:57:31;99476.19;;;10.81;84.19
58072;BME280;60383;46.626;18.866;2023-04-25T04:59:58;99476.03;;;10.83;85.70
58072;BME280;60383;46.626;18.866;2023-04-25T05:02:25;99477.75;;;10.84;84.91
58072;BME280;60383;46.626;18.866;2023-04-25T05:04:51;99480.41;;;10.92;84.55
58072;BME280;60383;46.626;18.866;2023-04-25T05:07:17;99481.66;;;10.81;85.32
58072;BME280;60383;46.626;18.866;2023-04-25T05:09:42;99479.31;;;10.78;87.41
58072;BME280;60383;46.626;18.866;2023-04-25T05:12:08;99483.03;;;10.85;85.72
58072;BME280;60383;46.626;18.866;2023-04-25T05:14:33;99478.94;;;10.81;86.00
58072;BME280;60383;46.626;18.866;2023-04-25T05:16:59;99483.03;;;10.85;86.65
58072;BME280;60383;46.626;18.866;2023-04-25T05:19:25;99481.03;;;10.79;85.46
58072;BME280;60383;46.626;18.866;2023-04-25T05:21:50;99487.03;;;10.98;85.66
58072;BME280;60383;46.626;18.866;2023-04-25T05:24:16;99485.53;;;10.95;86.31
58072;BME280;60383;46.626;18.866;2023-04-25T05:26:41;99489.84;;;10.90;85.32
58072;BME280;60383;46.626;18.866;2023-04-25T05:29:07;99494.47;;;11.12;84.65
58072;BME280;60383;46.626;18.866;2023-04-25T05:31:32;99487.75;;;11.15;84.32
58072;BME280;60383;46.626;18.866;2023-04-25T05:33:58;99493.97;;;11.09;85.57
58072;BME280;60383;46.626;18.866;2023-04-25T05:36:23;99497.06;;;11.29;82.43
58072;BME280;60383;46.626;18.866;2023-04-25T05:38:49;99496.22;;;11.28;82.87
58072;BME280;60383;46.626;18.866;2023-04-25T05:41:14;99502.50;;;11.14;84.29
58072;BME280;60383;46.626;18.866;2023-04-25T05:43:40;99501.50;;;11.30;84.70
58072;BME280;60383;46.626;18.866;2023-04-25T05:46:12;99501.59;;;11.22;85.30
58072;BME280;60383;46.626;18.866;2023-04-25T05:48:39;99497.88;;;11.53;81.48
58072;BME280;60383;46.626;18.866;2023-04-25T05:51:05;99506.00;;;11.46;82.23
58072;BME280;60383;46.626;18.866;2023-04-25T05:53:30;99508.09;;;11.59;79.01
58072;BME280;60383;46.626;18.866;2023-04-25T05:55:56;99502.19;;;11.47;80.32
58072;BME280;60383;46.626;18.866;2023-04-25T05:58:21;99509.16;;;11.34;81.45
58072;BME280;60383;46.626;18.866;2023-04-25T06:00:47;99510.31;;;11.25;82.15
58072;BME280;60383;46.626;18.866;2023-04-25T06:03:12;99512.69;;;11.43;79.12
58072;BME280;60383;46.626;18.866;2023-04-25T06:05:43;99515.59;;;11.27;79.24
58072;BME280;60383;46.626;18.866;2023-04-25T06:08:09;99518.53;;;11.25;80.73
58072;BME280;60383;46.626;18.866;2023-04-25T06:10:36;99525.84;;;11.48;78.37
58072;BME280;60383;46.626;18.866;2023-04-25T06:13:02;99526.00;;;11.31;78.71
58072;BME280;60383;46.626;18.866;2023-04-25T06:15:27;99527.13;;;11.37;80.43
58072;BME280;60383;46.626;18.866;2023-04-25T06:17:53;99521.31;;;11.55;79.24
58072;BME280;60383;46.626;18.866;2023-04-25T06:20:18;99528.53;;;11.71;76.44
58072;BME280;60383;46.626;18.866;2023-04-25T06:22:48;99525.78;;;11.71;77.52
58072;BME280;60383;46.626;18.866;2023-04-25T06:25:14;99523.25;;;11.70;76.60
58072;BME280;60383;46.626;18.866;2023-04-25T06:27:39;99517.34;;;11.58;78.40
58072;BME280;60383;46.626;18.866;2023-04-25T06:30:05;99519.88;;;11.82;75.74
58072;BME280;60383;46.626;18.866;2023-04-25T06:32:31;99530.84;;;11.82;76.18
58072;BME280;60383;46.626;18.866;2023-04-25T06:34:57;99524.28;;;11.69;76.91
58072;BME280;60383;46.626;18.866;2023-04-25T06:37:23;99529.63;;;12.00;75.13
58072;BME280;60383;46.626;18.866;2023-04-25T06:39:48;99523.91;;;11.87;77.38
58072;BME280;60383;46.626;18.866;2023-04-25T06:42:14;99531.59;;;11.91;76.42
58072;BME280;60383;46.626;18.866;2023-04-25T06:44:39;99527.28;;;11.97;74.87
58072;BME280;60383;46.626;18.866;2023-04-25T06:47:05;99525.56;;;12.11;76.23
58072;BME280;60383;46.626;18.866;2023-04-25T06:49:30;99524.13;;;12.15;73.11
58072;BME280;60383;46.626;18.866;2023-04-25T06:51:56;99522.34;;;12.22;73.74
58072;BME280;60383;46.626;18.866;2023-04-25T06:54:21;99516.56;;;12.17;71.78
58072;BME280;60383;46.626;18.866;2023-04-25T06:56:47;99513.34;;;12.13;73.40
58072;BME280;60383;46.626;18.866;2023-04-25T06:59:12;99522.63;;;12.27;70.81
58072;BME280;60383;46.626;18.866;2023-04-25T07:01:38;99524.06;;;12.08;70.50
58072;BME280;60383;46.626;18.866;2023-04-25T07:04:03;99517.81;;;12.14;71.46
58072;BME280;60383;46.626;18.866;2023-04-25T07:06:29;99524.13;;;12.15;72.89
58072;BME280;60383;46.626;18.866;2023-04-25T07:08:54;99521.13;;;12.10;74.23
58072;BME280;60383;46.626;18.866;2023-04-25T07:11:20;99516.22;;;12.20;72.28
58072;BME280;60383;46.626;18.866;2023-04-25T07:13:46;99521.13;;;12.10;72.63
58072;BME280;60383;46.626;18.866;2023-04-25T07:16:11;99503.44;;;12.27;70.73
58072;BME280;60383;46.626;18.866;2023-04-25T07:18:37;99510.41;;;12.30;71.06
58072;BME280;60383;46.626;18.866;2023-04-25T07:21:02;99503.13;;;12.37;71.49
58072;BME280;60383;46.626;18.866;2023-04-25T07:23:28;99507.34;;;12.55;69.72
58072;BME280;60383;46.626;18.866;2023-04-25T07:25:53;99500.50;;;12.66;67.81
58072;BME280;60383;46.626;18.866;2023-04-25T07:28:19;99500.53;;;12.36;69.05
58072;BME280;60383;46.626;18.866;2023-04-25T07:30:45;99500.69;;;12.64;68.46
58072;BME280;60383;46.626;18.866;2023-04-25T07:33:11;99500.13;;;12.69;67.94
58072;BME280;60383;46.626;18.866;2023-04-25T07:35:36;99494.78;;;12.82;67.77
58072;BME280;60383;46.626;18.866;2023-04-25T07:38:02;99495.94;;;12.94;69.35
58072;BME280;60383;46.626;18.866;2023-04-25T07:40:28;99493.66;;;13.20;68.94
58072;BME280;60383;46.626;18.866;2023-04-25T07:42:54;99501.50;;;13.23;67.47
58072;BME280;60383;46.626;18.866;2023-04-25T07:45:19;99493.34;;;13.58;66.67
58072;BME280;60383;46.626;18.866;2023-04-25T07:47:44;99498.44;;;13.89;66.86
58072;BME280;60383;46.626;18.866;2023-04-25T07:50:10;99489.06;;;14.12;67.72
58072;BME280;60383;46.626;18.866;2023-04-25T07:52:36;99487.53;;;14.45;68.02
58072;BME280;60383;46.626;18.866;2023-04-25T07:55:01;99493.44;;;14.42;66.33
58072;BME280;60383;46.626;18.866;2023-04-25T07:57:27;99491.34;;;14.50;62.68
58072;BME280;60383;46.626;18.866;2023-04-25T07:59:52;99487.44;;;14.31;63.15
58072;BME280;60383;46.626;18.866;2023-04-25T08:02:18;99480.31;;;14.44;61.66
58072;BME280;60383;46.626;18.866;2023-04-25T08:04:43;99483.44;;;14.34;63.10
58072;BME280;60383;46.626;18.866;2023-04-25T08:07:08;99493.06;;;14.10;64.15
58072;BME280;60383;46.626;18.866;2023-04-25T08:09:35;99490.13;;;14.18;63.14
58072;BME280;60383;46.626;18.866;2023-04-25T08:12:02;99488.38;;;14.52;62.66
58072;BME280;60383;46.626;18.866;2023-04-25T08:14:29;99492.13;;;14.86;63.27
58072;BME280;60383;46.626;18.866;2023-04-25T08:16:56;99492.78;;;15.01;61.39
58072;BME280;60383;46.626;18.866;2023-04-25T08:19:21;99487.50;;;15.07;60.97
58072;BME280;60383;46.626;18.866;2023-04-25T08:21:47;99482.19;;;15.18;60.39
58072;BME280;60383;46.626;18.866;2023-04-25T08:24:12;99491.75;;;15.29;60.84
58072;BME280;60383;46.626;18.866;2023-04-25T08:26:38;99492.38;;;15.25;59.08
58072;BME280;60383;46.626;18.866;2023-04-25T08:29:04;99498.13;;;15.16;59.73
58072;BME280;60383;46.626;18.866;2023-04-25T08:31:30;99496.22;;;15.30;58.66
58072;BME280;60383;46.626;18.866;2023-04-25T08:33:56;99501.31;;;15.20;59.61
58072;BME280;60383;46.626;18.866;2023-04-25T08:36:21;99504.28;;;15.52;58.43
58072;BME280;60383;46.626;18.866;2023-04-25T08:38:47;99497.28;;;15.36;58.22
58072;BME280;60383;46.626;18.866;2023-04-25T08:41:13;99504.06;;;15.40;58.76
58072;BME280;60383;46.626;18.866;2023-04-25T08:43:42;99498.56;;;15.47;59.62
58072;BME280;60383;46.626;18.866;2023-04-25T08:46:09;99508.72;;;15.73;58.31
58072;BME280;60383;46.626;18.866;2023-04-25T08:48:35;99511.03;;;16.10;55.93
58072;BME280;60383;46.626;18.866;2023-04-25T08:51:02;99500.34;;;16.34;59.04
58072;BME280;60383;46.626;18.866;2023-04-25T08:53:30;99504.41;;;16.31;55.47
58072;BME280;60383;46.626;18.866;2023-04-25T08:55:58;99502.66;;;16.43;55.86
58072;BME280;60383;46.626;18.866;2023-04-25T08:58:24;99498.59;;;16.53;54.97
58072;BME280;60383;46.626;18.866;2023-04-25T09:00:50;99504.19;;;16.33;54.24
58072;BME280;60383;46.626;18.866;2023-04-25T09:03:17;99507.22;;;16.18;53.41
58072;BME280;60383;46.626;18.866;2023-04-25T09:05:43;99507.03;;;15.99;56.12
58072;BME280;60383;46.626;18.866;2023-04-25T09:08:09;99507.91;;;15.86;56.81
58072;BME280;60383;46.626;18.866;2023-04-25T09:10:35;99503.00;;;15.81;56.79
58072;BME280;60383;46.626;18.866;2023-04-25T09:13:09;99510.25;;;15.56;57.00
58072;BME280;60383;46.626;18.866;2023-04-25T09:15:51;99505.78;;;15.61;56.29
58072;BME280;60383;46.626;18.866;2023-04-25T09:20:51;99510.66;;;15.46;55.11
58072;BME280;60383;46.626;18.866;2023-04-25T09:23:18;99513.66;;;15.44;56.61
58072;BME280;60383;46.626;18.866;2023-04-25T09:25:50;99514.06;;;15.61;56.81
58072;BME280;60383;46.626;18.866;2023-04-25T09:28:16;99518.50;;;15.56;56.54
58072;BME280;60383;46.626;18.866;2023-04-25T09:30:42;99509.19;;;15.43;58.20
58072;BME280;60383;46.626;18.866;2023-04-25T09:33:09;99511.72;;;15.65;56.32
58072;BME280;60383;46.626;18.866;2023-04-25T09:35:43;99507.91;;;15.32;57.22
58072;BME280;60383;46.626;18.866;2023-04-25T09:38:13;99510.22;;;15.15;57.42
58072;BME280;60383;46.626;18.866;2023-04-25T09:40:44;99504.72;;;15.42;57.40
58072;BME280;60383;46.626;18.866;2023-04-25T09:43:19;99515.31;;;15.32;56.92
58072;BME280;60383;46.626;18.866;2023-04-25T09:45:45;99504.94;;;15.68;56.51
58072;BME280;60383;46.626;18.866;2023-04-25T09:48:12;99508.72;;;15.80;55.48
58072;BME280;60383;46.626;18.866;2023-04-25T09:50:38;99510.44;;;15.94;55.55
58072;BME280;60383;46.626;18.866;2023-04-25T09:53:05;99507.88;;;15.66;56.86
58072;BME280;60383;46.626;18.866;2023-04-25T09:55:34;99509.94;;;16.31;54.18
58072;BME280;60383;46.626;18.866;2023-04-25T09:58:05;99513.38;;;16.20;54.26
58072;BME280;60383;46.626;18.866;2023-04-25T10:00:34;99509.50;;;16.21;51.77
58072;BME280;60383;46.626;18.866;2023-04-25T10:03:05;99501.13;;;16.54;54.50
58072;BME280;60383;46.626;18.866;2023-04-25T10:05:32;99504.78;;;16.87;53.23
58072;BME280;60383;46.626;18.866;2023-04-25T10:08:03;99503.94;;;16.86;52.46
58072;BME280;60383;46.626;18.866;2023-04-25T10:10:32;99496.81;;;17.36;51.79
58072;BME280;60383;46.626;18.866;2023-04-25T10:13:03;99498.31;;;17.64;51.75
58072;BME280;60383;46.626;18.866;2023-04-25T10:15:29;99495.97;;;17.86;49.04
58072;BME280;60383;46.626;18.866;2023-04-25T10:17:56;99497.03;;;17.85;49.34
58072;BME280;60383;46.626;18.866;2023-04-25T10:20:22;99501.69;;;17.66;48.05
58072;BME280;60383;46.626;18.866;2023-04-25T10:22:47;99502.53;;;17.41;48.85
58072;BME280;60383;46.626;18.866;2023-04-25T10:25:14;99505.22;;;16.84;50.30
58072;BME280;60383;46.626;18.866;2023-04-25T10:27:40;99503.94;;;16.93;50.86
58072;BME280;60383;46.626;18.866;2023-04-25T10:30:24;99497.41;;;16.74;51.94
58072;BME280;60383;46.626;18.866;2023-04-25T10:32:49;99499.34;;;16.67;51.53
58072;BME280;60383;46.626;18.866;2023-04-25T10:35:19;99500.72;;;17.28;50.27
58072;BME280;60383;46.626;18.866;2023-04-25T10:38:11;99501.38;;;16.91;51.14
58072;BME280;60383;46.626;18.866;2023-04-25T10:40:39;99505.06;;;16.72;50.21
58072;BME280;60383;46.626;18.866;2023-04-25T10:45:54;99502.88;;;16.87;51.32
58072;BME280;60383;46.626;18.866;2023-04-25T10:51:08;99498.19;;;17.52;50.84
58072;BME280;60383;46.626;18.866;2023-04-25T10:53:34;99499.56;;;17.43;49.03
58072;BME280;60383;46.626;18.866;2023-04-25T10:56:00;99508.13;;;17.34;48.85
58072;BME280;60383;46.626;18.866;2023-04-25T10:58:26;99508.00;;;17.22;48.62
58072;BME280;60383;46.626;18.866;2023-04-25T11:00:51;99504.44;;;17.15;50.05
58072;BME280;60383;46.626;18.866;2023-04-25T11:03:21;99503.28;;;17.55;49.03
58072;BME280;60383;46.626;18.866;2023-04-25T11:05:47;99491.41;;;17.48;48.83
58072;BME280;60383;46.626;18.866;2023-04-25T11:08:18;99500.28;;;16.99;49.49
58072;BME280;60383;46.626;18.866;2023-04-25T11:10:49;99507.38;;;17.20;47.69
58072;BME280;60383;46.626;18.866;2023-04-25T11:13:15;99506.66;;;17.32;48.70
58072;BME280;60383;46.626;18.866;2023-04-25T11:15:41;99508.66;;;17.50;46.77
58072;BME280;60383;46.626;18.866;2023-04-25T11:18:06;99507.16;;;17.47;46.53
58072;BME280;60383;46.626;18.866;2023-04-25T11:20:32;99508.03;;;17.48;47.03
58072;BME280;60383;46.626;18.866;2023-04-25T11:22:58;99516.97;;;17.18;47.41
58072;BME280;60383;46.626;18.866;2023-04-25T11:25:25;99515.84;;;16.87;47.89
58072;BME280;60383;46.626;18.866;2023-04-25T11:27:59;99521.06;;;16.63;48.39
58072;BME280;60383;46.626;18.866;2023-04-25T11:30:28;99520.03;;;16.57;48.08
58072;BME280;60383;46.626;18.866;2023-04-25T11:32:56;99524.84;;;16.23;49.19
58072;BME280;60383;46.626;18.866;2023-04-25T11:35:21;99522.03;;;16.37;49.59
58072;BME280;60383;46.626;18.866;2023-04-25T11:37:49;99514.34;;;16.39;50.73
58072;BME280;60383;46.626;18.866;2023-04-25T11:40:15;99504.13;;;16.46;50.64
58072;BME280;60383;46.626;18.866;2023-04-25T11:42:46;99502.41;;;16.45;49.51
58072;BME280;60383;46.626;18.866;2023-04-25T11:45:12;99502.03;;;16.87;48.80
58072;BME280;60383;46.626;18.866;2023-04-25T11:47:38;99498.97;;;17.34;48.82
58072;BME280;60383;46.626;18.866;2023-04-25T11:50:06;99487.56;;;17.74;46.37
58072;BME280;60383;46.626;18.866;2023-04-25T11:52:40;99493.44;;;17.84;45.72
58072;BME280;60383;46.626;18.866;2023-04-25T11:55:10;99500.56;;;17.73;45.51
58072;BME280;60383;46.626;18.866;2023-04-25T11:57:39;99501.03;;;17.70;44.13
58072;BME280;60383;46.626;18.866;2023-04-25T12:00:10;99502.66;;;17.78;44.96
58072;BME280;60383;46.626;18.866;2023-04-25T12:02:40;99493.19;;;17.86;43.78
58072;BME280;60383;46.626;18.866;2023-04-25T12:05:07;99487.25;;;18.26;42.97
58072;BME280;60383;46.626;18.866;2023-04-25T12:07:36;99480.41;;;18.29;43.07
58072;BME280;60383;46.626;18.866;2023-04-25T12:10:10;99479.47;;;18.54;43.51
58072;BME280;60383;46.626;18.866;2023-04-25T12:12:37;99480.22;;;18.61;40.65
58072;BME280;60383;46.626;18.866;2023-04-25T12:15:15;99479.09;;;18.80;41.95
58072;BME280;60383;46.626;18.866;2023-04-25T12:17:45;99475.97;;;19.07;41.39
58072;BME280;60383;46.626;18.866;2023-04-25T12:20:15;99486.75;;;19.15;41.42
58072;BME280;60383;46.626;18.866;2023-04-25T12:22:43;99480.94;;;19.17;43.22
58072;BME280;60383;46.626;18.866;2023-04-25T12:25:14;99482.19;;;18.91;39.79
58072;BME280;60383;46.626;18.866;2023-04-25T12:28:21;99474.19;;;19.13;41.88
58072;BME280;60383;46.626;18.866;2023-04-25T12:31:06;99478.16;;;19.17;41.73
58072;BME280;60383;46.626;18.866;2023-04-25T12:33:34;99469.16;;;18.91;40.18
58072;BME280;60383;46.626;18.866;2023-04-25T12:36:00;99462.06;;;18.46;41.36
58072;BME280;60383;46.626;18.866;2023-04-25T12:38:30;99456.38;;;18.41;40.88
58072;BME280;60383;46.626;18.866;2023-04-25T12:40:57;99463.63;;;18.24;40.77
58072;BME280;60383;46.626;18.866;2023-04-25T12:43:23;99461.78;;;17.99;40.26
58072;BME280;60383;46.626;18.866;2023-04-25T12:45:50;99453.84;;;18.40;41.24
58072;BME280;60383;46.626;18.866;2023-04-25T12:48:19;99451.13;;;18.82;38.62
58072;BME280;60383;46.626;18.866;2023-04-25T12:50:45;99442.97;;;18.57;39.09
58072;BME280;60383;46.626;18.866;2023-04-25T12:53:13;99437.69;;;18.67;37.61
58072;BME280;60383;46.626;18.866;2023-04-25T12:55:38;99445.66;;;18.94;37.62